createdAt,value
2018-09-03T00:01:24.285Z,2.20
2018-09-03T00:03:51.989Z,3.30
2018-09-03T00:06:19.289Z,2.80
2018-09-03T00:08:46.611Z,2.33
2018-09-03T00:11:14.044Z,2.83
2018-09-03T00:13:41.349Z,2.73
2018-09-03T00:16:08.693Z,2.43
2018-09-03T00:18:36.058Z,2.73
2018-09-03T00:21:03.737Z,3.17
2018-09-03T00:23:31.193Z,3.40
2018-09-03T00:25:58.612Z,2.80
2018-09-03T00:28:25.946Z,2.90
2018-09-03T00:30:57.969Z,3.00
2018-09-03T00:33:31.119Z,2.93
2018-09-03T00:36:04.326Z,2.40
2018-09-03T00:38:37.395Z,2.67
2018-09-03T00:41:10.803Z,2.73
2018-09-03T00:43:43.930Z,2.60
2018-09-03T00:46:17.001Z,2.73
2018-09-03T00:48:44.346Z,3.27
2018-09-03T00:51:11.647Z,3.93
2018-09-03T00:53:38.969Z,3.00
2018-09-03T00:56:06.446Z,2.90
2018-09-03T00:58:33.738Z,2.70
2018-09-03T01:01:01.005Z,2.60
2018-09-03T01:03:28.518Z,3.53
2018-09-03T01:05:55.797Z,3.33
2018-09-03T01:08:23.055Z,3.27
2018-09-03T01:10:50.345Z,3.20
2018-09-03T01:13:17.661Z,2.83
2018-09-03T01:15:45.011Z,2.67
2018-09-03T01:18:12.486Z,3.10
2018-09-03T01:20:39.853Z,2.90
2018-09-03T01:23:07.179Z,3.67
2018-09-03T01:25:35.279Z,3.60
2018-09-03T01:28:02.771Z,3.27
2018-09-03T01:30:31.003Z,3.40
2018-09-03T01:32:59.131Z,3.43
2018-09-03T01:35:26.601Z,2.47
2018-09-03T01:37:53.946Z,2.50
2018-09-03T01:40:21.250Z,2.93
2018-09-03T01:42:48.558Z,2.87
2018-09-03T01:45:16.007Z,3.40
2018-09-03T01:47:43.429Z,2.60
2018-09-03T01:50:10.786Z,2.90
2018-09-03T01:52:38.149Z,2.97
2018-09-03T01:55:05.533Z,2.97
2018-09-03T01:57:32.895Z,2.70
2018-09-03T02:00:00.217Z,3.23
2018-09-03T02:02:27.537Z,3.27
2018-09-03T02:04:54.884Z,3.03
2018-09-03T02:07:22.261Z,2.83
2018-09-03T02:09:49.623Z,3.87
2018-09-03T02:12:16.937Z,3.90
2018-09-03T02:14:44.235Z,2.90
2018-09-03T02:17:12.858Z,3.50
2018-09-03T02:19:40.198Z,3.57
2018-09-03T02:22:07.874Z,3.03
2018-09-03T02:24:35.433Z,3.27
2018-09-03T02:27:02.851Z,3.73
2018-09-03T02:29:30.217Z,3.10
2018-09-03T02:31:57.562Z,3.17
2018-09-03T02:34:24.954Z,3.40
2018-09-03T02:36:52.260Z,3.53
2018-09-03T02:39:19.556Z,3.80
2018-09-03T02:41:46.911Z,3.20
2018-09-03T02:44:14.246Z,4.00
2018-09-03T02:46:41.731Z,3.20
2018-09-03T02:49:09.030Z,2.87
2018-09-03T02:51:36.448Z,3.03
2018-09-03T02:54:04.165Z,3.33
2018-09-03T02:56:31.505Z,3.60
2018-09-03T02:58:58.942Z,3.43
2018-09-03T03:01:26.238Z,3.73
2018-09-03T03:03:53.549Z,3.50
2018-09-03T03:06:20.998Z,3.30
2018-09-03T03:08:48.453Z,3.30
2018-09-03T03:11:15.766Z,3.17
2018-09-03T03:13:43.061Z,3.37
2018-09-03T03:16:10.359Z,4.10
2018-09-03T03:18:37.672Z,3.80
2018-09-03T03:21:05.282Z,3.50
2018-09-03T03:23:32.825Z,3.30
2018-09-03T03:26:00.177Z,2.97
2018-09-03T03:28:27.539Z,3.37
2018-09-03T03:30:54.853Z,3.30
2018-09-03T03:33:22.247Z,3.80
2018-09-03T03:35:49.578Z,2.87
2018-09-03T03:38:16.874Z,3.10
2018-09-03T03:40:44.247Z,3.60
2018-09-03T03:43:11.581Z,3.70
2018-09-03T03:45:39.036Z,2.30
2018-09-03T03:48:06.460Z,4.23
2018-09-03T03:50:33.725Z,3.50
2018-09-03T03:53:01.074Z,3.37
2018-09-03T03:55:28.469Z,3.90
2018-09-03T03:57:55.810Z,3.20
2018-09-03T04:00:23.237Z,4.20
2018-09-03T04:02:50.514Z,3.37
2018-09-03T04:05:17.818Z,3.60
2018-09-03T04:07:45.144Z,3.20
2018-09-03T04:10:12.485Z,4.27
2018-09-03T04:12:44.408Z,3.80
2018-09-03T04:15:11.738Z,4.23
2018-09-03T04:17:39.067Z,4.23
2018-09-03T04:20:06.441Z,4.03
2018-09-03T04:22:33.966Z,3.63
2018-09-03T04:25:02.152Z,4.53
2018-09-03T04:27:29.529Z,4.10
2018-09-03T04:29:56.861Z,4.40
2018-09-03T04:32:24.165Z,4.10
2018-09-03T04:34:51.539Z,4.00
2018-09-03T04:37:18.839Z,4.60
2018-09-03T04:39:46.258Z,4.40
2018-09-03T04:42:13.539Z,4.30
2018-09-03T04:44:40.918Z,3.90
2018-09-03T04:47:08.323Z,4.00
2018-09-03T04:49:36.150Z,4.00
2018-09-03T04:52:03.682Z,3.97
2018-09-03T04:54:31.065Z,3.70
2018-09-03T04:56:58.402Z,3.40
2018-09-03T04:59:25.783Z,3.77
2018-09-03T05:01:53.162Z,4.07
2018-09-03T05:04:20.449Z,4.53
2018-09-03T05:06:47.851Z,3.73
2018-09-03T05:09:15.157Z,4.23
2018-09-03T05:11:42.508Z,4.20
2018-09-03T05:14:09.821Z,3.30
2018-09-03T05:16:37.196Z,3.60
2018-09-03T05:19:04.919Z,4.30
2018-09-03T05:21:32.248Z,3.70
2018-09-03T05:23:59.662Z,3.50
2018-09-03T05:26:27.014Z,3.17
2018-09-03T05:28:54.518Z,4.00
2018-09-03T05:31:21.898Z,4.57
2018-09-03T05:33:49.316Z,3.63
2018-09-03T05:36:16.687Z,3.23
2018-09-03T05:38:44.006Z,3.50
2018-09-03T05:41:11.330Z,3.93
2018-09-03T05:43:38.810Z,4.50
2018-09-03T05:46:05.998Z,3.90
2018-09-03T05:48:33.638Z,3.70
2018-09-03T05:51:00.973Z,3.50
2018-09-03T05:53:28.690Z,4.07
2018-09-03T05:55:56.169Z,3.40
2018-09-03T05:58:23.518Z,3.60
2018-09-03T06:00:50.950Z,4.37
2018-09-03T06:03:18.371Z,4.63
2018-09-03T06:05:45.739Z,3.77
2018-09-03T06:08:13.210Z,4.70
2018-09-03T06:10:40.620Z,4.30
2018-09-03T06:13:07.834Z,4.50
2018-09-03T06:15:35.342Z,4.13
2018-09-03T06:18:02.920Z,3.63
2018-09-03T06:20:30.802Z,4.90
2018-09-03T06:22:58.144Z,4.10
2018-09-03T06:25:25.487Z,3.90
2018-09-03T06:27:52.974Z,4.50
2018-09-03T06:30:20.457Z,5.43
2018-09-03T06:32:47.882Z,4.83
2018-09-03T06:35:15.226Z,4.60
2018-09-03T06:37:42.608Z,4.20
2018-09-03T06:40:10.062Z,5.30
2018-09-03T06:42:37.529Z,4.60
2018-09-03T06:45:05.269Z,4.30
2018-09-03T06:47:32.598Z,4.80
2018-09-03T06:50:00.012Z,4.17
2018-09-03T06:52:27.371Z,4.03
2018-09-03T06:54:54.741Z,4.93
2018-09-03T06:57:22.030Z,4.27
2018-09-03T06:59:49.597Z,3.70
2018-09-03T07:02:16.954Z,3.80
2018-09-03T07:04:44.319Z,4.20
2018-09-03T07:07:11.761Z,4.60
2018-09-03T07:09:39.107Z,4.73
2018-09-03T07:12:06.427Z,4.47
2018-09-03T07:14:33.691Z,4.10
2018-09-03T07:17:01.109Z,4.17
2018-09-03T07:19:28.539Z,4.27
2018-09-03T07:21:55.871Z,4.43
2018-09-03T07:24:23.206Z,4.10
2018-09-03T07:26:50.642Z,4.20
2018-09-03T07:29:18.232Z,4.87
2018-09-03T07:31:45.555Z,5.40
2018-09-03T07:34:13.001Z,5.13
2018-09-03T07:36:40.336Z,4.30
2018-09-03T07:39:08.275Z,4.70
2018-09-03T07:41:35.875Z,4.77
2018-09-03T07:44:03.473Z,4.87
2018-09-03T07:46:30.749Z,5.13
2018-09-03T07:48:58.150Z,4.97
2018-09-03T07:51:25.546Z,4.57
2018-09-03T07:53:52.907Z,4.60
2018-09-03T07:56:20.279Z,5.47
2018-09-03T07:58:47.591Z,4.43
2018-09-03T08:01:14.912Z,4.47
2018-09-03T08:03:42.193Z,5.17
2018-09-03T08:06:09.524Z,4.63
2018-09-03T08:08:36.829Z,5.77
2018-09-03T08:11:04.214Z,5.10
2018-09-03T08:13:37.311Z,7.07
2018-09-03T08:16:04.899Z,5.00
2018-09-03T08:18:32.272Z,4.73
2018-09-03T08:20:59.734Z,5.00
2018-09-03T08:23:27.083Z,4.43
2018-09-03T08:25:54.371Z,4.93
2018-09-03T08:28:21.749Z,4.43
2018-09-03T08:30:49.246Z,4.87
2018-09-03T08:33:16.627Z,4.23
2018-09-03T08:35:44.088Z,4.03
2018-09-03T08:38:11.438Z,4.50
2018-09-03T08:40:39.019Z,4.87
2018-09-03T08:43:06.314Z,4.80
2018-09-03T08:45:33.646Z,4.70
2018-09-03T08:48:01.030Z,5.40
2018-09-03T08:50:28.443Z,5.30
2018-09-03T08:52:55.713Z,5.73
2018-09-03T08:55:23.047Z,5.90
2018-09-03T08:57:50.442Z,6.60
2018-09-03T09:00:17.957Z,5.37
2018-09-03T09:02:45.517Z,5.63
2018-09-03T09:05:13.198Z,5.47
2018-09-03T09:07:40.547Z,5.40
2018-09-03T09:10:07.927Z,5.37
2018-09-03T09:12:35.263Z,6.17
2018-09-03T09:15:02.758Z,5.53
2018-09-03T09:17:30.482Z,6.50
2018-09-03T09:19:57.791Z,6.00
2018-09-03T09:22:25.122Z,5.93
2018-09-03T09:24:52.535Z,6.30
2018-09-03T09:27:19.946Z,5.50
2018-09-03T09:29:47.270Z,6.27
2018-09-03T09:32:14.661Z,7.10
2018-09-03T09:34:41.973Z,6.13
2018-09-03T09:37:09.447Z,6.43
2018-09-03T09:39:36.752Z,5.80
2018-09-03T09:42:04.207Z,5.97
2018-09-03T09:44:31.584Z,5.90
2018-09-03T09:46:59.003Z,5.70
2018-09-03T09:49:26.380Z,6.07
2018-09-03T09:51:53.722Z,5.90
2018-09-03T09:54:21.196Z,6.57
2018-09-03T09:56:48.539Z,6.33
2018-09-03T09:59:15.845Z,6.67
2018-09-03T10:01:43.170Z,7.30
2018-09-03T10:04:10.508Z,7.27
2018-09-03T10:06:37.812Z,7.00
2018-09-03T10:09:06.571Z,7.10
2018-09-03T10:11:33.961Z,6.37
2018-09-03T10:14:01.477Z,6.30
2018-09-03T10:16:28.904Z,8.00
2018-09-03T10:18:56.291Z,12.53
2018-09-03T10:21:23.614Z,13.70
2018-09-03T10:23:51.042Z,10.13
2018-09-03T10:26:18.557Z,9.30
2018-09-03T10:28:45.945Z,8.50
2018-09-03T10:31:13.425Z,8.87
2018-09-03T10:33:40.814Z,7.30
2018-09-03T10:36:08.158Z,5.60
2018-09-03T10:38:35.563Z,7.07
2018-09-03T10:41:03.039Z,7.53
2018-09-03T10:43:30.479Z,6.47
2018-09-03T10:45:57.888Z,6.30
2018-09-03T10:48:25.252Z,6.17
2018-09-03T10:50:52.661Z,5.20
2018-09-03T10:53:20.004Z,5.20
2018-09-03T10:55:47.405Z,5.57
2018-09-03T10:58:14.766Z,4.93
2018-09-03T11:00:42.106Z,5.50
2018-09-03T11:03:09.386Z,5.67
2018-09-03T11:05:36.706Z,5.23
2018-09-03T11:08:04.414Z,4.60
2018-09-03T11:10:32.838Z,8.77
2018-09-03T11:13:00.311Z,7.80
2018-09-03T11:15:27.675Z,8.43
2018-09-03T11:17:55.015Z,17.17
2018-09-03T11:20:26.662Z,13.57
2018-09-03T11:22:54.452Z,9.97
2018-09-03T11:25:22.625Z,9.70
2018-09-03T11:27:51.287Z,8.50
2018-09-03T11:30:19.093Z,7.67
2018-09-03T11:32:52.528Z,8.90
2018-09-03T11:35:20.518Z,5.63
2018-09-03T11:37:48.447Z,8.77
2018-09-03T11:40:15.928Z,7.67
2018-09-03T11:42:43.591Z,6.10
2018-09-03T11:45:11.057Z,5.70
2018-09-03T11:47:38.426Z,7.70
2018-09-03T11:50:06.177Z,7.70
2018-09-03T11:52:33.553Z,7.50
2018-09-03T11:55:01.102Z,7.93
2018-09-03T11:57:28.455Z,6.63
2018-09-03T11:59:55.749Z,5.70
2018-09-03T12:02:23.241Z,6.90
2018-09-03T12:04:50.637Z,7.50
2018-09-03T12:07:18.167Z,6.30
2018-09-03T12:09:45.626Z,8.03
2018-09-03T12:12:12.949Z,7.63
2018-09-03T12:14:42.667Z,7.07
2018-09-03T12:17:10.308Z,7.67
2018-09-03T12:19:38.019Z,7.70
2018-09-03T12:22:05.549Z,10.13
2018-09-03T12:24:33.070Z,9.50
2018-09-03T12:27:00.516Z,6.90
2018-09-03T12:29:27.814Z,7.50
2018-09-03T12:31:55.342Z,7.33
2018-09-03T12:34:22.710Z,9.10
2018-09-03T12:36:50.229Z,9.17
2018-09-03T12:39:17.831Z,9.40
2018-09-03T12:41:45.186Z,10.33
2018-09-03T12:44:12.766Z,10.80
2018-09-03T12:46:40.157Z,7.70
2018-09-03T12:49:07.688Z,6.90
2018-09-03T12:51:35.268Z,8.60
2018-09-03T12:54:02.624Z,16.50
2018-09-03T12:56:29.990Z,23.43
2018-09-03T12:58:57.602Z,13.43
2018-09-03T13:01:24.923Z,12.50
2018-09-03T13:03:52.771Z,10.17
2018-09-03T13:06:20.213Z,8.10
2018-09-03T13:08:47.505Z,11.97
2018-09-03T13:11:14.897Z,13.30
2018-09-03T13:13:42.229Z,8.80
2018-09-03T13:16:09.573Z,7.00
2018-09-03T13:18:36.940Z,10.03
2018-09-03T13:21:04.446Z,14.93
2018-09-03T13:23:31.824Z,12.37
2018-09-03T13:25:59.152Z,15.23
2018-09-03T13:28:26.546Z,13.57
2018-09-03T13:30:53.963Z,13.03
2018-09-03T13:33:21.341Z,8.80
2018-09-03T13:35:48.666Z,8.77
2018-09-03T13:38:15.993Z,8.23
2018-09-03T13:40:43.362Z,14.33
2018-09-03T13:43:10.855Z,15.47
2018-09-03T13:45:38.235Z,10.67
2018-09-03T13:48:06.000Z,14.90
2018-09-03T13:50:33.272Z,14.80
2018-09-03T13:53:00.738Z,13.33
2018-09-03T13:55:28.189Z,12.90
2018-09-03T13:57:55.702Z,16.43
2018-09-03T14:00:23.051Z,13.33
2018-09-03T14:02:50.460Z,13.20
2018-09-03T14:05:17.833Z,16.77
2018-09-03T14:07:45.217Z,13.70
2018-09-03T14:10:12.682Z,15.50
2018-09-03T14:12:40.266Z,15.37
2018-09-03T14:15:07.678Z,14.73
2018-09-03T14:17:35.089Z,14.57
2018-09-03T14:20:02.579Z,23.10
2018-09-03T14:22:30.031Z,15.93
2018-09-03T14:24:57.576Z,13.07
2018-09-03T14:27:25.104Z,9.30
2018-09-03T14:29:52.557Z,8.87
2018-09-03T14:32:20.019Z,7.90
2018-09-03T14:34:47.282Z,7.53
2018-09-03T14:37:14.706Z,7.17
2018-09-03T14:39:42.045Z,11.60
2018-09-03T14:42:09.366Z,9.90
2018-09-03T14:44:36.756Z,14.30
2018-09-03T14:47:04.162Z,15.20
2018-09-03T14:49:31.725Z,23.90
2018-09-03T14:51:59.159Z,21.20
2018-09-03T14:54:26.606Z,19.27
2018-09-03T14:56:54.226Z,14.23
2018-09-03T14:59:21.759Z,13.90
2018-09-03T15:01:49.234Z,13.67
2018-09-03T15:04:16.838Z,14.97
2018-09-03T15:06:44.105Z,12.30
2018-09-03T15:09:11.751Z,10.83
2018-09-03T15:11:39.329Z,14.50
2018-09-03T15:14:06.703Z,11.70
2018-09-03T15:16:34.354Z,10.80
2018-09-03T15:19:02.941Z,10.20
2018-09-03T15:21:30.517Z,10.00
2018-09-03T15:23:57.834Z,9.90
2018-09-03T15:26:25.322Z,12.40
2018-09-03T15:28:53.025Z,10.70
2018-09-03T15:31:20.449Z,9.70
2018-09-03T15:33:47.782Z,10.57
2018-09-03T15:36:15.248Z,9.83
2018-09-03T15:38:42.567Z,11.80
2018-09-03T15:41:09.917Z,13.57
2018-09-03T15:43:37.466Z,13.43
2018-09-03T15:46:06.114Z,14.40
2018-09-03T15:48:33.557Z,12.00
2018-09-03T15:51:01.321Z,12.70
2018-09-03T15:53:28.685Z,11.57
2018-09-03T15:55:57.118Z,10.07
2018-09-03T15:58:24.495Z,9.73
2018-09-03T16:00:52.192Z,9.90
2018-09-03T16:03:19.521Z,12.40
2018-09-03T16:05:46.889Z,16.20
2018-09-03T16:08:15.357Z,12.97
2018-09-03T16:10:42.962Z,14.87
2018-09-03T16:13:11.240Z,11.23
2018-09-03T16:15:38.760Z,11.50
2018-09-03T16:18:06.562Z,10.60
2018-09-03T16:20:34.198Z,10.50
2018-09-03T16:23:01.936Z,9.93
2018-09-03T16:25:29.428Z,12.50
2018-09-03T16:27:57.069Z,11.43
2018-09-03T16:30:24.586Z,12.00
2018-09-03T16:32:52.058Z,12.37
2018-09-03T16:35:19.480Z,13.47
2018-09-03T16:37:46.830Z,12.53
2018-09-03T16:40:14.378Z,12.60
2018-09-03T16:42:41.869Z,11.80
2018-09-03T16:45:09.327Z,12.47
2018-09-03T16:47:36.695Z,11.87
2018-09-03T16:50:04.642Z,12.73
2018-09-03T16:52:32.050Z,12.87
2018-09-03T16:54:59.698Z,12.00
2018-09-03T16:57:27.463Z,12.07
2018-09-03T16:59:55.117Z,11.37
2018-09-03T17:02:22.422Z,13.90
2018-09-03T17:04:49.910Z,13.87
2018-09-03T17:07:17.337Z,15.57
2018-09-03T17:09:44.916Z,16.10
2018-09-03T17:12:12.302Z,20.00
2018-09-03T17:14:39.625Z,29.60
2018-09-03T17:17:07.334Z,20.37
2018-09-03T17:19:34.693Z,19.40
2018-09-03T17:22:02.533Z,17.90
2018-09-03T17:24:30.389Z,15.93
2018-09-03T17:26:57.951Z,15.50
2018-09-03T17:29:25.283Z,14.93
2018-09-03T17:31:52.999Z,15.87
2018-09-03T17:34:20.303Z,14.20
2018-09-03T17:36:47.580Z,15.10
2018-09-03T17:39:14.979Z,16.03
2018-09-03T17:41:42.513Z,15.90
2018-09-03T17:44:10.084Z,14.60
2018-09-03T17:46:37.407Z,15.23
2018-09-03T17:49:05.170Z,15.47
2018-09-03T17:51:32.442Z,15.13
2018-09-03T17:53:59.781Z,16.00
2018-09-03T17:56:27.129Z,16.10
2018-09-03T17:58:54.722Z,16.87
2018-09-03T18:01:22.151Z,19.40
2018-09-03T18:03:49.526Z,19.57
2018-09-03T18:06:17.138Z,15.90
2018-09-03T18:08:44.545Z,16.03
2018-09-03T18:11:12.254Z,16.30
2018-09-03T18:13:39.605Z,16.07
2018-09-03T18:16:07.009Z,16.70
2018-09-03T18:18:34.683Z,17.40
2018-09-03T18:21:02.409Z,18.97
2018-09-03T18:23:29.763Z,19.10
2018-09-03T18:25:57.306Z,19.87
2018-09-03T18:28:24.750Z,19.47
2018-09-03T18:30:52.435Z,17.43
2018-09-03T18:33:19.791Z,17.17
2018-09-03T18:35:47.176Z,17.10
2018-09-03T18:38:14.909Z,15.13
2018-09-03T18:40:42.652Z,15.70
2018-09-03T18:43:10.331Z,16.73
2018-09-03T18:45:37.661Z,16.30
2018-09-03T18:48:05.634Z,16.77
2018-09-03T18:50:33.226Z,17.23
2018-09-03T18:53:00.654Z,16.73
2018-09-03T18:55:28.443Z,17.40
2018-09-03T18:57:55.730Z,16.63
2018-09-03T19:00:23.379Z,16.80
2018-09-03T19:02:50.876Z,17.17
2018-09-03T19:05:18.368Z,18.10
2018-09-03T19:07:46.148Z,17.53
2018-09-03T19:10:13.455Z,19.03
2018-09-03T19:12:41.252Z,17.60
2018-09-03T19:15:08.895Z,17.17
2018-09-03T19:17:36.325Z,17.53
2018-09-03T19:20:04.116Z,17.93
2018-09-03T19:22:31.511Z,18.13
2018-09-03T19:24:59.201Z,17.70
2018-09-03T19:27:26.899Z,18.37
2018-09-03T19:29:54.284Z,16.43
2018-09-03T19:32:21.702Z,19.60
2018-09-03T19:34:49.119Z,17.00
2018-09-03T19:37:16.513Z,18.20
2018-09-03T19:39:44.594Z,18.23
2018-09-03T19:42:12.138Z,18.00
2018-09-03T19:44:39.575Z,18.20
2018-09-03T19:47:06.894Z,18.70
2018-09-03T19:49:34.175Z,18.90
2018-09-03T19:52:02.046Z,20.13
2018-09-03T19:54:29.396Z,19.70
2018-09-03T19:56:57.189Z,18.63
2018-09-03T19:59:24.621Z,17.63
2018-09-03T20:01:52.085Z,16.23
2018-09-03T20:04:19.573Z,18.50
2018-09-03T20:06:46.941Z,18.43
2018-09-03T20:09:14.278Z,17.03
2018-09-03T20:11:42.190Z,18.13
2018-09-03T20:14:09.602Z,18.83
2018-09-03T20:16:37.372Z,19.67
2018-09-03T20:19:04.731Z,19.47
2018-09-03T20:21:32.122Z,23.30
2018-09-03T20:23:59.962Z,26.03
2018-09-03T20:26:27.343Z,26.50
2018-09-03T20:28:55.113Z,22.80
2018-09-03T20:31:23.195Z,22.40
2018-09-03T20:33:50.829Z,20.87
2018-09-03T20:36:18.193Z,19.57
2018-09-03T20:38:45.519Z,19.33
2018-09-03T20:41:13.290Z,16.07
2018-09-03T20:43:40.637Z,17.23
2018-09-03T20:46:08.264Z,18.40
2018-09-03T20:48:35.996Z,19.53
2018-09-03T20:51:04.322Z,20.80
2018-09-03T20:53:31.789Z,20.77
2018-09-03T20:55:59.050Z,19.10
2018-09-03T20:58:26.820Z,19.47
2018-09-03T21:00:54.194Z,19.40
2018-09-03T21:03:21.651Z,18.20
2018-09-03T21:05:49.610Z,19.70
2018-09-03T21:08:17.021Z,21.47
2018-09-03T21:10:44.468Z,20.50
2018-09-03T21:13:11.863Z,19.60
2018-09-03T21:15:39.187Z,18.23
2018-09-03T21:18:06.883Z,20.00
2018-09-03T21:20:34.249Z,18.90
2018-09-03T21:23:01.927Z,19.07
2018-09-03T21:25:29.590Z,17.10
2018-09-03T21:27:57.043Z,18.27
2018-09-03T21:30:24.650Z,17.80
2018-09-03T21:32:52.068Z,18.90
2018-09-03T21:35:19.439Z,19.97
2018-09-03T21:37:46.816Z,19.00
2018-09-03T21:40:14.186Z,17.90
2018-09-03T21:42:41.515Z,18.80
2018-09-03T21:45:08.801Z,20.20
2018-09-03T21:47:36.221Z,19.53
2018-09-03T21:50:03.803Z,19.87
2018-09-03T21:52:31.221Z,18.60
2018-09-03T21:54:58.487Z,18.17
2018-09-03T21:57:25.954Z,18.50
2018-09-03T21:59:53.322Z,21.57
2018-09-03T22:02:20.709Z,21.47
2018-09-03T22:04:48.057Z,21.03
2018-09-03T22:07:16.614Z,20.17
2018-09-03T22:09:44.036Z,22.30
2018-09-03T22:12:11.422Z,21.03
2018-09-03T22:14:38.858Z,22.60
2018-09-03T22:17:06.751Z,22.40
2018-09-03T22:19:34.094Z,22.10
2018-09-03T22:22:01.551Z,20.00
2018-09-03T22:24:28.902Z,21.60
2018-09-03T22:26:56.283Z,19.00
2018-09-03T22:29:23.592Z,17.93
2018-09-03T22:31:50.950Z,19.70
2018-09-03T22:34:18.298Z,19.10
2018-09-03T22:36:45.785Z,17.13
2018-09-03T22:39:13.470Z,17.57
2018-09-03T22:41:40.924Z,18.00
2018-09-03T22:44:08.222Z,19.60
2018-09-03T22:46:35.779Z,19.33
2018-09-03T22:49:03.338Z,21.53
2018-09-03T22:51:30.739Z,17.83
2018-09-03T22:53:58.109Z,18.73
2018-09-03T22:56:25.481Z,19.20
2018-09-03T22:58:52.989Z,20.40
2018-09-03T23:01:20.346Z,19.37
2018-09-03T23:03:47.649Z,20.00
2018-09-03T23:06:15.120Z,19.93
2018-09-03T23:08:42.556Z,21.60
2018-09-03T23:11:09.961Z,18.80
2018-09-03T23:13:37.226Z,18.77
2018-09-03T23:16:04.572Z,19.43
2018-09-03T23:18:31.882Z,19.93
2018-09-03T23:20:59.278Z,20.33
2018-09-03T23:23:26.679Z,21.37
2018-09-03T23:25:54.050Z,21.77
2018-09-03T23:28:21.418Z,21.63
2018-09-03T23:30:48.765Z,20.10
2018-09-03T23:33:16.040Z,21.30
2018-09-03T23:35:43.458Z,21.77
2018-09-03T23:38:17.073Z,20.27
2018-09-03T23:40:50.430Z,20.90
2018-09-03T23:43:17.836Z,23.43
2018-09-03T23:45:45.204Z,22.50
2018-09-03T23:48:12.718Z,20.20
2018-09-03T23:50:40.185Z,23.60
2018-09-03T23:53:07.592Z,22.53
2018-09-03T23:55:35.003Z,21.80
2018-09-03T23:58:02.342Z,22.53
